sensor_id;sensor_type;location;lat;lon;timestamp;P1;durP1;ratioP1;P2;durP2;ratioP2
66739;SDS011;53653;52.188;8.602;2023-07-02T00:00:57;12.27;;;5.10;;
66739;SDS011;53653;52.188;8.602;2023-07-02T00:03:24;14.20;;;5.32;;
66739;SDS011;53653;52.188;8.602;2023-07-02T00:05:50;10.68;;;5.43;;
66739;SDS011;53653;52.188;8.602;2023-07-02T00:08:19;15.48;;;5.60;;
66739;SDS011;53653;52.188;8.602;2023-07-02T00:10:46;13.53;;;6.10;;
66739;SDS011;53653;52.188;8.602;2023-07-02T00:13:12;13.40;;;5.88;;
66739;SDS011;53653;52.188;8.602;2023-07-02T00:15:37;14.73;;;5.90;;
66739;SDS011;53653;52.188;8.602;2023-07-02T00:18:03;14.10;;;5.50;;
66739;SDS011;53653;52.188;8.602;2023-07-02T00:20:28;18.23;;;6.30;;
66739;SDS011;53653;52.188;8.602;2023-07-02T00:22:55;13.93;;;5.45;;
66739;SDS011;53653;52.188;8.602;2023-07-02T00:25:21;14.00;;;5.93;;
66739;SDS011;53653;52.188;8.602;2023-07-02T00:27:47;12.32;;;6.40;;
66739;SDS011;53653;52.188;8.602;2023-07-02T00:30:12;12.13;;;6.07;;
66739;SDS011;53653;52.188;8.602;2023-07-02T00:32:38;15.50;;;6.30;;
66739;SDS011;53653;52.188;8.602;2023-07-02T00:35:04;17.37;;;6.13;;
66739;SDS011;53653;52.188;8.602;2023-07-02T00:37:30;13.15;;;6.35;;
66739;SDS011;53653;52.188;8.602;2023-07-02T00:39:56;12.13;;;6.05;;
66739;SDS011;53653;52.188;8.602;2023-07-02T00:42:22;17.30;;;6.80;;
66739;SDS011;53653;52.188;8.602;2023-07-02T00:44:48;13.93;;;6.72;;
66739;SDS011;53653;52.188;8.602;2023-07-02T00:47:14;14.27;;;7.20;;
66739;SDS011;53653;52.188;8.602;2023-07-02T00:49:41;13.85;;;7.38;;
66739;SDS011;53653;52.188;8.602;2023-07-02T00:52:07;14.70;;;7.30;;
66739;SDS011;53653;52.188;8.602;2023-07-02T00:54:32;15.97;;;6.93;;
66739;SDS011;53653;52.188;8.602;2023-07-02T00:56:59;16.08;;;7.68;;
66739;SDS011;53653;52.188;8.602;2023-07-02T00:59:29;15.30;;;7.85;;
66739;SDS011;53653;52.188;8.602;2023-07-02T01:01:55;18.50;;;8.23;;
66739;SDS011;53653;52.188;8.602;2023-07-02T01:04:22;17.20;;;7.60;;
66739;SDS011;53653;52.188;8.602;2023-07-02T01:06:52;19.83;;;8.13;;
66739;SDS011;53653;52.188;8.602;2023-07-02T01:09:23;21.05;;;7.85;;
66739;SDS011;53653;52.188;8.602;2023-07-02T01:11:56;17.85;;;8.57;;
66739;SDS011;53653;52.188;8.602;2023-07-02T01:17:03;20.77;;;8.80;;
66739;SDS011;53653;52.188;8.602;2023-07-02T01:22:06;15.02;;;9.10;;
66739;SDS011;53653;52.188;8.602;2023-07-02T01:24:34;19.08;;;9.18;;
66739;SDS011;53653;52.188;8.602;2023-07-02T01:27:02;19.88;;;10.82;;
66739;SDS011;53653;52.188;8.602;2023-07-02T01:29:29;15.15;;;8.55;;
66739;SDS011;53653;52.188;8.602;2023-07-02T01:31:56;16.63;;;8.93;;
66739;SDS011;53653;52.188;8.602;2023-07-02T01:34:21;16.65;;;7.93;;
66739;SDS011;53653;52.188;8.602;2023-07-02T01:36:47;17.40;;;8.27;;
66739;SDS011;53653;52.188;8.602;2023-07-02T01:39:12;16.60;;;7.80;;
66739;SDS011;53653;52.188;8.602;2023-07-02T01:41:45;14.43;;;8.10;;
66739;SDS011;53653;52.188;8.602;2023-07-02T01:44:14;18.83;;;7.93;;
66739;SDS011;53653;52.188;8.602;2023-07-02T01:46:40;15.20;;;7.53;;
66739;SDS011;53653;52.188;8.602;2023-07-02T01:49:05;15.77;;;7.27;;
66739;SDS011;53653;52.188;8.602;2023-07-02T01:51:31;14.97;;;7.33;;
66739;SDS011;53653;52.188;8.602;2023-07-02T01:53:57;16.98;;;8.07;;
66739;SDS011;53653;52.188;8.602;2023-07-02T01:56:23;13.80;;;7.47;;
66739;SDS011;53653;52.188;8.602;2023-07-02T01:58:48;14.37;;;7.23;;
66739;SDS011;53653;52.188;8.602;2023-07-02T02:01:14;16.17;;;7.07;;
66739;SDS011;53653;52.188;8.602;2023-07-02T02:03:39;15.00;;;7.73;;
66739;SDS011;53653;52.188;8.602;2023-07-02T02:06:04;19.47;;;8.50;;
66739;SDS011;53653;52.188;8.602;2023-07-02T02:08:30;14.50;;;7.72;;
66739;SDS011;53653;52.188;8.602;2023-07-02T02:10:56;14.10;;;6.93;;
66739;SDS011;53653;52.188;8.602;2023-07-02T02:13:21;15.47;;;7.80;;
66739;SDS011;53653;52.188;8.602;2023-07-02T02:15:47;15.82;;;7.50;;
66739;SDS011;53653;52.188;8.602;2023-07-02T02:18:13;12.90;;;7.47;;
66739;SDS011;53653;52.188;8.602;2023-07-02T02:20:39;17.55;;;7.55;;
66739;SDS011;53653;52.188;8.602;2023-07-02T02:23:04;16.20;;;7.70;;
66739;SDS011;53653;52.188;8.602;2023-07-02T02:25:30;12.93;;;7.57;;
66739;SDS011;53653;52.188;8.602;2023-07-02T02:27:55;15.23;;;8.00;;
66739;SDS011;53653;52.188;8.602;2023-07-02T02:30:21;15.23;;;7.70;;
66739;SDS011;53653;52.188;8.602;2023-07-02T02:32:48;18.88;;;9.00;;
66739;SDS011;53653;52.188;8.602;2023-07-02T02:35:14;16.70;;;8.85;;
66739;SDS011;53653;52.188;8.602;2023-07-02T02:37:40;18.77;;;9.48;;
66739;SDS011;53653;52.188;8.602;2023-07-02T02:40:07;17.17;;;9.88;;
66739;SDS011;53653;52.188;8.602;2023-07-02T02:42:35;17.03;;;10.17;;
66739;SDS011;53653;52.188;8.602;2023-07-02T02:45:01;18.35;;;9.95;;
66739;SDS011;53653;52.188;8.602;2023-07-02T02:47:27;21.75;;;11.13;;
66739;SDS011;53653;52.188;8.602;2023-07-02T02:49:52;16.90;;;10.00;;
66739;SDS011;53653;52.188;8.602;2023-07-02T02:52:18;20.33;;;10.53;;
66739;SDS011;53653;52.188;8.602;2023-07-02T02:54:43;18.48;;;11.13;;
66739;SDS011;53653;52.188;8.602;2023-07-02T02:57:09;24.53;;;11.87;;
66739;SDS011;53653;52.188;8.602;2023-07-02T02:59:34;22.67;;;12.17;;
66739;SDS011;53653;52.188;8.602;2023-07-02T03:02:01;20.55;;;12.00;;
66739;SDS011;53653;52.188;8.602;2023-07-02T03:04:27;21.27;;;11.85;;
66739;SDS011;53653;52.188;8.602;2023-07-02T03:06:52;23.40;;;12.40;;
66739;SDS011;53653;52.188;8.602;2023-07-02T03:09:19;19.67;;;12.00;;
66739;SDS011;53653;52.188;8.602;2023-07-02T03:11:45;21.37;;;12.03;;
66739;SDS011;53653;52.188;8.602;2023-07-02T03:14:12;24.42;;;12.00;;
66739;SDS011;53653;52.188;8.602;2023-07-02T03:16:38;25.20;;;13.80;;
66739;SDS011;53653;52.188;8.602;2023-07-02T03:19:04;28.57;;;13.83;;
66739;SDS011;53653;52.188;8.602;2023-07-02T03:21:29;22.92;;;13.50;;
66739;SDS011;53653;52.188;8.602;2023-07-02T03:23:55;28.27;;;14.77;;
66739;SDS011;53653;52.188;8.602;2023-07-02T03:26:20;27.10;;;14.47;;
66739;SDS011;53653;52.188;8.602;2023-07-02T03:28:47;26.30;;;15.38;;
66739;SDS011;53653;52.188;8.602;2023-07-02T03:31:13;26.13;;;14.47;;
66739;SDS011;53653;52.188;8.602;2023-07-02T03:33:38;26.25;;;16.10;;
66739;SDS011;53653;52.188;8.602;2023-07-02T03:36:04;24.37;;;15.70;;
66739;SDS011;53653;52.188;8.602;2023-07-02T03:38:29;26.43;;;14.77;;
66739;SDS011;53653;52.188;8.602;2023-07-02T03:40:55;19.95;;;9.82;;
66739;SDS011;53653;52.188;8.602;2023-07-02T03:43:21;18.93;;;7.30;;
66739;SDS011;53653;52.188;8.602;2023-07-02T03:45:47;14.07;;;7.85;;
66739;SDS011;53653;52.188;8.602;2023-07-02T03:48:12;15.77;;;6.83;;
66739;SDS011;53653;52.188;8.602;2023-07-02T03:50:38;16.63;;;6.80;;
66739;SDS011;53653;52.188;8.602;2023-07-02T03:53:03;15.57;;;6.40;;
66739;SDS011;53653;52.188;8.602;2023-07-02T03:55:28;17.07;;;7.23;;
66739;SDS011;53653;52.188;8.602;2023-07-02T03:57:54;19.77;;;8.47;;
66739;SDS011;53653;52.188;8.602;2023-07-02T04:00:19;16.43;;;7.97;;
66739;SDS011;53653;52.188;8.602;2023-07-02T04:02:47;24.20;;;8.48;;
66739;SDS011;53653;52.188;8.602;2023-07-02T04:05:12;18.47;;;7.70;;
66739;SDS011;53653;52.188;8.602;2023-07-02T04:07:38;20.13;;;8.03;;
66739;SDS011;53653;52.188;8.602;2023-07-02T04:10:03;20.90;;;7.70;;
66739;SDS011;53653;52.188;8.602;2023-07-02T04:12:29;16.02;;;7.38;;
66739;SDS011;53653;52.188;8.602;2023-07-02T04:14:56;17.05;;;8.25;;
66739;SDS011;53653;52.188;8.602;2023-07-02T04:17:21;15.20;;;7.73;;
66739;SDS011;53653;52.188;8.602;2023-07-02T04:19:47;15.83;;;7.47;;
66739;SDS011;53653;52.188;8.602;2023-07-02T04:22:12;18.75;;;7.78;;
66739;SDS011;53653;52.188;8.602;2023-07-02T04:24:37;15.73;;;6.87;;
66739;SDS011;53653;52.188;8.602;2023-07-02T04:27:03;17.83;;;7.23;;
66739;SDS011;53653;52.188;8.602;2023-07-02T04:29:28;21.25;;;7.25;;
66739;SDS011;53653;52.188;8.602;2023-07-02T04:31:54;17.67;;;7.10;;
66739;SDS011;53653;52.188;8.602;2023-07-02T04:34:19;16.03;;;6.73;;
66739;SDS011;53653;52.188;8.602;2023-07-02T04:36:47;16.95;;;6.55;;
66739;SDS011;53653;52.188;8.602;2023-07-02T04:39:13;18.23;;;6.90;;
66739;SDS011;53653;52.188;8.602;2023-07-02T04:41:38;21.65;;;7.22;;
66739;SDS011;53653;52.188;8.602;2023-07-02T04:44:04;14.60;;;6.43;;
66739;SDS011;53653;52.188;8.602;2023-07-02T04:46:29;15.00;;;6.20;;
66739;SDS011;53653;52.188;8.602;2023-07-02T04:48:55;15.37;;;6.23;;
66739;SDS011;53653;52.188;8.602;2023-07-02T04:51:20;17.47;;;5.97;;
66739;SDS011;53653;52.188;8.602;2023-07-02T04:53:46;16.77;;;6.15;;
66739;SDS011;53653;52.188;8.602;2023-07-02T04:56:12;17.93;;;6.17;;
66739;SDS011;53653;52.188;8.602;2023-07-02T04:58:37;16.90;;;6.30;;
66739;SDS011;53653;52.188;8.602;2023-07-02T05:01:03;15.37;;;6.23;;
66739;SDS011;53653;52.188;8.602;2023-07-02T05:03:28;16.63;;;6.63;;
66739;SDS011;53653;52.188;8.602;2023-07-02T05:05:54;18.67;;;5.70;;
66739;SDS011;53653;52.188;8.602;2023-07-02T05:08:19;15.50;;;5.73;;
66739;SDS011;53653;52.188;8.602;2023-07-02T05:10:44;16.73;;;6.00;;
66739;SDS011;53653;52.188;8.602;2023-07-02T05:13:10;19.30;;;6.17;;
66739;SDS011;53653;52.188;8.602;2023-07-02T05:15:35;17.60;;;5.65;;
66739;SDS011;53653;52.188;8.602;2023-07-02T05:18:01;20.33;;;5.30;;
66739;SDS011;53653;52.188;8.602;2023-07-02T05:20:26;19.50;;;5.77;;
66739;SDS011;53653;52.188;8.602;2023-07-02T05:22:52;14.67;;;5.27;;
66739;SDS011;53653;52.188;8.602;2023-07-02T05:25:17;15.95;;;5.70;;
66739;SDS011;53653;52.188;8.602;2023-07-02T05:27:42;19.70;;;6.60;;
66739;SDS011;53653;52.188;8.602;2023-07-02T05:30:08;16.23;;;5.60;;
66739;SDS011;53653;52.188;8.602;2023-07-02T05:32:34;14.07;;;5.78;;
66739;SDS011;53653;52.188;8.602;2023-07-02T05:35:00;16.83;;;5.80;;
66739;SDS011;53653;52.188;8.602;2023-07-02T05:37:25;15.82;;;5.93;;
66739;SDS011;53653;52.188;8.602;2023-07-02T05:39:50;21.07;;;5.60;;
66739;SDS011;53653;52.188;8.602;2023-07-02T05:42:16;17.10;;;5.90;;
66739;SDS011;53653;52.188;8.602;2023-07-02T05:44:41;18.20;;;6.00;;
66739;SDS011;53653;52.188;8.602;2023-07-02T05:47:07;20.47;;;6.10;;
66739;SDS011;53653;52.188;8.602;2023-07-02T05:49:32;16.27;;;5.90;;
66739;SDS011;53653;52.188;8.602;2023-07-02T05:51:58;18.67;;;6.10;;
66739;SDS011;53653;52.188;8.602;2023-07-02T05:54:23;21.10;;;5.90;;
66739;SDS011;53653;52.188;8.602;2023-07-02T05:56:49;16.60;;;5.83;;
66739;SDS011;53653;52.188;8.602;2023-07-02T05:59:14;19.80;;;6.13;;
66739;SDS011;53653;52.188;8.602;2023-07-02T06:01:43;17.70;;;6.00;;
66739;SDS011;53653;52.188;8.602;2023-07-02T06:04:08;25.02;;;6.63;;
66739;SDS011;53653;52.188;8.602;2023-07-02T06:06:34;17.10;;;6.33;;
66739;SDS011;53653;52.188;8.602;2023-07-02T06:08:59;16.70;;;5.73;;
66739;SDS011;53653;52.188;8.602;2023-07-02T06:11:25;19.13;;;6.30;;
66739;SDS011;53653;52.188;8.602;2023-07-02T06:13:50;16.85;;;5.88;;
66739;SDS011;53653;52.188;8.602;2023-07-02T06:16:16;21.77;;;6.43;;
66739;SDS011;53653;52.188;8.602;2023-07-02T06:18:41;16.00;;;6.07;;
66739;SDS011;53653;52.188;8.602;2023-07-02T06:21:06;23.40;;;6.45;;
66739;SDS011;53653;52.188;8.602;2023-07-02T06:23:42;17.70;;;5.37;;
66739;SDS011;53653;52.188;8.602;2023-07-02T06:26:07;18.08;;;5.63;;
66739;SDS011;53653;52.188;8.602;2023-07-02T06:28:33;18.33;;;5.50;;
66739;SDS011;53653;52.188;8.602;2023-07-02T06:30:58;16.40;;;5.50;;
66739;SDS011;53653;52.188;8.602;2023-07-02T06:33:24;17.25;;;5.90;;
66739;SDS011;53653;52.188;8.602;2023-07-02T06:35:49;18.67;;;5.90;;
66739;SDS011;53653;52.188;8.602;2023-07-02T06:38:15;17.53;;;5.23;;
66739;SDS011;53653;52.188;8.602;2023-07-02T06:40:40;19.23;;;5.97;;
66739;SDS011;53653;52.188;8.602;2023-07-02T06:43:06;20.43;;;5.70;;
66739;SDS011;53653;52.188;8.602;2023-07-02T06:45:31;17.07;;;6.20;;
66739;SDS011;53653;52.188;8.602;2023-07-02T06:47:57;18.83;;;6.33;;
66739;SDS011;53653;52.188;8.602;2023-07-02T06:50:22;19.35;;;5.45;;
66739;SDS011;53653;52.188;8.602;2023-07-02T06:52:48;18.90;;;5.93;;
66739;SDS011;53653;52.188;8.602;2023-07-02T06:55:13;20.87;;;6.87;;
66739;SDS011;53653;52.188;8.602;2023-07-02T06:57:42;20.20;;;6.10;;
66739;SDS011;53653;52.188;8.602;2023-07-02T07:00:10;19.87;;;5.60;;
66739;SDS011;53653;52.188;8.602;2023-07-02T07:02:39;18.20;;;5.72;;
66739;SDS011;53653;52.188;8.602;2023-07-02T07:05:05;34.22;;;6.20;;
66739;SDS011;53653;52.188;8.602;2023-07-02T07:07:31;19.17;;;5.77;;
66739;SDS011;53653;52.188;8.602;2023-07-02T07:09:57;21.73;;;5.90;;
66739;SDS011;53653;52.188;8.602;2023-07-02T07:12:23;24.58;;;6.20;;
66739;SDS011;53653;52.188;8.602;2023-07-02T07:14:48;17.63;;;5.97;;
66739;SDS011;53653;52.188;8.602;2023-07-02T07:17:14;15.68;;;5.60;;
66739;SDS011;53653;52.188;8.602;2023-07-02T07:19:40;19.30;;;5.77;;
66739;SDS011;53653;52.188;8.602;2023-07-02T07:22:05;18.73;;;6.43;;
66739;SDS011;53653;52.188;8.602;2023-07-02T07:24:31;21.30;;;5.70;;
66739;SDS011;53653;52.188;8.602;2023-07-02T07:26:57;15.38;;;5.25;;
66739;SDS011;53653;52.188;8.602;2023-07-02T07:29:22;24.60;;;5.90;;
66739;SDS011;53653;52.188;8.602;2023-07-02T07:31:48;20.63;;;6.30;;
66739;SDS011;53653;52.188;8.602;2023-07-02T07:34:14;18.33;;;5.50;;
66739;SDS011;53653;52.188;8.602;2023-07-02T07:36:39;24.40;;;6.80;;
66739;SDS011;53653;52.188;8.602;2023-07-02T07:39:05;17.30;;;5.88;;
66739;SDS011;53653;52.188;8.602;2023-07-02T07:41:30;22.77;;;6.33;;
66739;SDS011;53653;52.188;8.602;2023-07-02T07:43:57;18.15;;;5.35;;
66739;SDS011;53653;52.188;8.602;2023-07-02T07:46:23;23.20;;;5.90;;
66739;SDS011;53653;52.188;8.602;2023-07-02T07:48:49;19.47;;;5.93;;
66739;SDS011;53653;52.188;8.602;2023-07-02T07:51:16;16.83;;;5.45;;
66739;SDS011;53653;52.188;8.602;2023-07-02T07:53:41;23.87;;;6.37;;
66739;SDS011;53653;52.188;8.602;2023-07-02T07:56:08;17.60;;;6.40;;
66739;SDS011;53653;52.188;8.602;2023-07-02T07:58:33;19.70;;;5.60;;
66739;SDS011;53653;52.188;8.602;2023-07-02T08:00:59;21.77;;;6.83;;
66739;SDS011;53653;52.188;8.602;2023-07-02T08:03:24;21.03;;;5.50;;
66739;SDS011;53653;52.188;8.602;2023-07-02T08:05:50;18.63;;;5.32;;
66739;SDS011;53653;52.188;8.602;2023-07-02T08:08:16;18.87;;;6.07;;
66739;SDS011;53653;52.188;8.602;2023-07-02T08:10:41;21.95;;;6.10;;
66739;SDS011;53653;52.188;8.602;2023-07-02T08:13:07;19.33;;;5.60;;
66739;SDS011;53653;52.188;8.602;2023-07-02T08:15:33;19.42;;;5.57;;
66739;SDS011;53653;52.188;8.602;2023-07-02T08:17:59;20.73;;;6.25;;
66739;SDS011;53653;52.188;8.602;2023-07-02T08:20:25;24.23;;;6.47;;
66739;SDS011;53653;52.188;8.602;2023-07-02T08:22:51;16.15;;;5.65;;
66739;SDS011;53653;52.188;8.602;2023-07-02T08:25:17;18.92;;;6.00;;
66739;SDS011;53653;52.188;8.602;2023-07-02T08:27:43;18.53;;;5.73;;
66739;SDS011;53653;52.188;8.602;2023-07-02T08:30:10;21.77;;;5.78;;
66739;SDS011;53653;52.188;8.602;2023-07-02T08:32:35;19.70;;;5.85;;
66739;SDS011;53653;52.188;8.602;2023-07-02T08:35:01;20.23;;;5.37;;
66739;SDS011;53653;52.188;8.602;2023-07-02T08:37:27;19.42;;;6.05;;
66739;SDS011;53653;52.188;8.602;2023-07-02T08:39:52;17.77;;;6.07;;
66739;SDS011;53653;52.188;8.602;2023-07-02T08:42:18;18.23;;;5.40;;
66739;SDS011;53653;52.188;8.602;2023-07-02T08:44:47;17.85;;;5.30;;
66739;SDS011;53653;52.188;8.602;2023-07-02T08:47:18;15.77;;;5.20;;
66739;SDS011;53653;52.188;8.602;2023-07-02T08:49:44;21.55;;;5.88;;
66739;SDS011;53653;52.188;8.602;2023-07-02T08:52:09;15.13;;;5.50;;
66739;SDS011;53653;52.188;8.602;2023-07-02T08:54:35;15.03;;;5.10;;
66739;SDS011;53653;52.188;8.602;2023-07-02T08:57:00;14.90;;;5.13;;
66739;SDS011;53653;52.188;8.602;2023-07-02T08:59:30;15.32;;;4.97;;
66739;SDS011;53653;52.188;8.602;2023-07-02T09:01:56;14.20;;;4.83;;
66739;SDS011;53653;52.188;8.602;2023-07-02T09:04:22;17.15;;;5.10;;
66739;SDS011;53653;52.188;8.602;2023-07-02T09:06:50;14.93;;;4.60;;
66739;SDS011;53653;52.188;8.602;2023-07-02T09:09:46;14.93;;;5.20;;
66739;SDS011;53653;52.188;8.602;2023-07-02T09:14:58;18.20;;;5.32;;
66739;SDS011;53653;52.188;8.602;2023-07-02T09:17:29;14.43;;;4.80;;
66739;SDS011;53653;52.188;8.602;2023-07-02T09:19:57;18.77;;;4.72;;
66739;SDS011;53653;52.188;8.602;2023-07-02T09:22:23;13.57;;;4.53;;
66739;SDS011;53653;52.188;8.602;2023-07-02T09:24:56;14.75;;;4.80;;
66739;SDS011;53653;52.188;8.602;2023-07-02T09:27:39;15.23;;;4.53;;
66739;SDS011;53653;52.188;8.602;2023-07-02T09:30:09;18.37;;;5.47;;
66739;SDS011;53653;52.188;8.602;2023-07-02T09:32:43;14.77;;;5.45;;
66739;SDS011;53653;52.188;8.602;2023-07-02T09:35:10;12.10;;;4.43;;
66739;SDS011;53653;52.188;8.602;2023-07-02T09:37:36;15.80;;;5.05;;
66739;SDS011;53653;52.188;8.602;2023-07-02T09:40:03;16.13;;;5.18;;
66739;SDS011;53653;52.188;8.602;2023-07-02T09:42:32;13.50;;;4.73;;
66739;SDS011;53653;52.188;8.602;2023-07-02T09:45:00;16.23;;;4.97;;
66739;SDS011;53653;52.188;8.602;2023-07-02T09:47:27;14.43;;;4.53;;
66739;SDS011;53653;52.188;8.602;2023-07-02T09:49:59;14.95;;;4.55;;
66739;SDS011;53653;52.188;8.602;2023-07-02T09:52:30;14.57;;;5.10;;
66739;SDS011;53653;52.188;8.602;2023-07-02T09:54:58;15.80;;;4.53;;
66739;SDS011;53653;52.188;8.602;2023-07-02T09:57:24;13.43;;;4.40;;
66739;SDS011;53653;52.188;8.602;2023-07-02T09:59:50;15.52;;;5.03;;
66739;SDS011;53653;52.188;8.602;2023-07-02T10:02:15;14.90;;;4.83;;
66739;SDS011;53653;52.188;8.602;2023-07-02T10:04:42;18.90;;;5.20;;
66739;SDS011;53653;52.188;8.602;2023-07-02T10:07:12;16.63;;;4.85;;
66739;SDS011;53653;52.188;8.602;2023-07-02T10:09:42;13.27;;;4.40;;
66739;SDS011;53653;52.188;8.602;2023-07-02T10:14:52;15.52;;;4.72;;
66739;SDS011;53653;52.188;8.602;2023-07-02T10:17:26;14.48;;;4.70;;
66739;SDS011;53653;52.188;8.602;2023-07-02T10:19:57;15.82;;;4.78;;
66739;SDS011;53653;52.188;8.602;2023-07-02T10:22:45;17.17;;;4.30;;
66739;SDS011;53653;52.188;8.602;2023-07-02T10:25:25;15.37;;;4.67;;
66739;SDS011;53653;52.188;8.602;2023-07-02T10:27:52;13.93;;;4.43;;
66739;SDS011;53653;52.188;8.602;2023-07-02T10:30:17;13.77;;;4.72;;
66739;SDS011;53653;52.188;8.602;2023-07-02T10:32:43;13.47;;;4.97;;
66739;SDS011;53653;52.188;8.602;2023-07-02T10:35:15;14.15;;;4.65;;
66739;SDS011;53653;52.188;8.602;2023-07-02T10:37:42;15.75;;;4.07;;
66739;SDS011;53653;52.188;8.602;2023-07-02T10:40:08;16.23;;;4.93;;
66739;SDS011;53653;52.188;8.602;2023-07-02T10:42:44;14.05;;;4.68;;
66739;SDS011;53653;52.188;8.602;2023-07-02T10:45:14;14.38;;;4.60;;
66739;SDS011;53653;52.188;8.602;2023-07-02T10:47:40;12.98;;;4.38;;
66739;SDS011;53653;52.188;8.602;2023-07-02T10:50:18;16.23;;;4.38;;
66739;SDS011;53653;52.188;8.602;2023-07-02T10:52:45;14.17;;;4.50;;
66739;SDS011;53653;52.188;8.602;2023-07-02T10:55:18;12.02;;;4.25;;
66739;SDS011;53653;52.188;8.602;2023-07-02T10:57:45;18.27;;;4.68;;
66739;SDS011;53653;52.188;8.602;2023-07-02T11:00:11;15.68;;;5.03;;
66739;SDS011;53653;52.188;8.602;2023-07-02T11:02:37;13.57;;;4.38;;
66739;SDS011;53653;52.188;8.602;2023-07-02T11:05:06;14.93;;;4.60;;
66739;SDS011;53653;52.188;8.602;2023-07-02T11:07:37;17.27;;;5.25;;
66739;SDS011;53653;52.188;8.602;2023-07-02T11:10:07;13.23;;;4.72;;
66739;SDS011;53653;52.188;8.602;2023-07-02T11:12:33;14.43;;;4.57;;
66739;SDS011;53653;52.188;8.602;2023-07-02T11:15:11;12.52;;;4.05;;
66739;SDS011;53653;52.188;8.602;2023-07-02T11:17:42;12.75;;;4.18;;
66739;SDS011;53653;52.188;8.602;2023-07-02T11:20:08;10.13;;;4.47;;
66739;SDS011;53653;52.188;8.602;2023-07-02T11:22:36;11.68;;;4.70;;
66739;SDS011;53653;52.188;8.602;2023-07-02T11:25:18;17.85;;;5.10;;
66739;SDS011;53653;52.188;8.602;2023-07-02T11:27:47;13.32;;;4.80;;
66739;SDS011;53653;52.188;8.602;2023-07-02T11:30:13;17.60;;;5.03;;
66739;SDS011;53653;52.188;8.602;2023-07-02T11:32:52;15.73;;;4.50;;
66739;SDS011;53653;52.188;8.602;2023-07-02T11:35:19;16.92;;;5.05;;
66739;SDS011;53653;52.188;8.602;2023-07-02T11:37:46;17.65;;;4.88;;
66739;SDS011;53653;52.188;8.602;2023-07-02T11:40:14;16.17;;;4.68;;
66739;SDS011;53653;52.188;8.602;2023-07-02T11:42:40;12.40;;;4.80;;
66739;SDS011;53653;52.188;8.602;2023-07-02T11:45:06;13.85;;;4.53;;
66739;SDS011;53653;52.188;8.602;2023-07-02T11:47:32;13.23;;;5.25;;
66739;SDS011;53653;52.188;8.602;2023-07-02T11:49:57;14.63;;;4.67;;
66739;SDS011;53653;52.188;8.602;2023-07-02T11:52:24;14.38;;;4.63;;
66739;SDS011;53653;52.188;8.602;2023-07-02T11:54:50;16.52;;;4.95;;
66739;SDS011;53653;52.188;8.602;2023-07-02T11:57:16;13.90;;;4.85;;
66739;SDS011;53653;52.188;8.602;2023-07-02T11:59:41;14.43;;;4.43;;
66739;SDS011;53653;52.188;8.602;2023-07-02T12:02:07;15.00;;;4.95;;
66739;SDS011;53653;52.188;8.602;2023-07-02T12:04:33;12.27;;;4.90;;
66739;SDS011;53653;52.188;8.602;2023-07-02T12:06:59;12.90;;;4.50;;
66739;SDS011;53653;52.188;8.602;2023-07-02T12:09:26;15.32;;;5.00;;
66739;SDS011;53653;52.188;8.602;2023-07-02T12:11:52;15.23;;;4.75;;
66739;SDS011;53653;52.188;8.602;2023-07-02T12:14:18;13.37;;;4.03;;
66739;SDS011;53653;52.188;8.602;2023-07-02T12:16:43;14.68;;;4.13;;
66739;SDS011;53653;52.188;8.602;2023-07-02T12:19:09;14.03;;;4.57;;
66739;SDS011;53653;52.188;8.602;2023-07-02T12:21:35;11.95;;;4.05;;
66739;SDS011;53653;52.188;8.602;2023-07-02T12:24:00;15.23;;;4.60;;
66739;SDS011;53653;52.188;8.602;2023-07-02T12:26:26;12.50;;;4.33;;
66739;SDS011;53653;52.188;8.602;2023-07-02T12:28:51;13.07;;;4.20;;
66739;SDS011;53653;52.188;8.602;2023-07-02T12:31:17;15.37;;;4.93;;
66739;SDS011;53653;52.188;8.602;2023-07-02T12:33:42;17.77;;;4.83;;
66739;SDS011;53653;52.188;8.602;2023-07-02T12:36:07;13.13;;;4.17;;
66739;SDS011;53653;52.188;8.602;2023-07-02T12:38:33;14.30;;;4.20;;
66739;SDS011;53653;52.188;8.602;2023-07-02T12:40:58;14.37;;;4.33;;
66739;SDS011;53653;52.188;8.602;2023-07-02T12:43:24;11.80;;;4.40;;
66739;SDS011;53653;52.188;8.602;2023-07-02T12:45:49;11.25;;;4.30;;
66739;SDS011;53653;52.188;8.602;2023-07-02T12:48:16;13.10;;;4.50;;
66739;SDS011;53653;52.188;8.602;2023-07-02T12:50:42;18.77;;;4.20;;
66739;SDS011;53653;52.188;8.602;2023-07-02T12:53:18;12.60;;;4.00;;
66739;SDS011;53653;52.188;8.602;2023-07-02T12:55:44;11.13;;;4.25;;
66739;SDS011;53653;52.188;8.602;2023-07-02T12:58:09;13.23;;;4.47;;
66739;SDS011;53653;52.188;8.602;2023-07-02T13:00:34;11.03;;;4.10;;
66739;SDS011;53653;52.188;8.602;2023-07-02T13:03:00;16.00;;;4.80;;
66739;SDS011;53653;52.188;8.602;2023-07-02T13:05:25;11.82;;;4.40;;
66739;SDS011;53653;52.188;8.602;2023-07-02T13:07:51;11.37;;;4.33;;
66739;SDS011;53653;52.188;8.602;2023-07-02T13:10:16;14.37;;;4.40;;
66739;SDS011;53653;52.188;8.602;2023-07-02T13:12:41;12.00;;;4.43;;
66739;SDS011;53653;52.188;8.602;2023-07-02T13:15:07;14.90;;;4.55;;
66739;SDS011;53653;52.188;8.602;2023-07-02T13:17:33;19.03;;;4.63;;
66739;SDS011;53653;52.188;8.602;2023-07-02T13:19:58;13.85;;;4.55;;
66739;SDS011;53653;52.188;8.602;2023-07-02T13:22:24;12.37;;;3.93;;
66739;SDS011;53653;52.188;8.602;2023-07-02T13:24:51;12.52;;;4.07;;
66739;SDS011;53653;52.188;8.602;2023-07-02T13:27:17;11.70;;;3.70;;
66739;SDS011;53653;52.188;8.602;2023-07-02T13:29:43;12.48;;;3.40;;
66739;SDS011;53653;52.188;8.602;2023-07-02T13:32:09;14.00;;;3.70;;
66739;SDS011;53653;52.188;8.602;2023-07-02T13:34:36;11.75;;;4.53;;
66739;SDS011;53653;52.188;8.602;2023-07-02T13:37:02;10.45;;;3.83;;
66739;SDS011;53653;52.188;8.602;2023-07-02T13:39:29;16.23;;;3.45;;
66739;SDS011;53653;52.188;8.602;2023-07-02T13:41:55;9.82;;;3.50;;
66739;SDS011;53653;52.188;8.602;2023-07-02T13:44:21;12.17;;;3.73;;
66739;SDS011;53653;52.188;8.602;2023-07-02T13:46:46;11.87;;;3.87;;
66739;SDS011;53653;52.188;8.602;2023-07-02T13:49:12;13.88;;;3.88;;
66739;SDS011;53653;52.188;8.602;2023-07-02T13:51:38;11.97;;;4.63;;
66739;SDS011;53653;52.188;8.602;2023-07-02T13:54:03;12.95;;;3.83;;
66739;SDS011;53653;52.188;8.602;2023-07-02T13:56:29;10.33;;;3.67;;
66739;SDS011;53653;52.188;8.602;2023-07-02T14:01:20;14.13;;;4.23;;
66739;SDS011;53653;52.188;8.602;2023-07-02T14:03:45;11.73;;;3.47;;
66739;SDS011;53653;52.188;8.602;2023-07-02T14:06:11;11.07;;;3.60;;
66739;SDS011;53653;52.188;8.602;2023-07-02T14:08:36;11.47;;;3.77;;
66739;SDS011;53653;52.188;8.602;2023-07-02T14:11:02;11.30;;;4.03;;
66739;SDS011;53653;52.188;8.602;2023-07-02T14:13:27;10.93;;;3.95;;
66739;SDS011;53653;52.188;8.602;2023-07-02T14:15:53;11.03;;;3.73;;
66739;SDS011;53653;52.188;8.602;2023-07-02T14:18:18;10.83;;;3.37;;
66739;SDS011;53653;52.188;8.602;2023-07-02T14:20:44;16.70;;;4.13;;
66739;SDS011;53653;52.188;8.602;2023-07-02T14:23:09;10.77;;;4.00;;
66739;SDS011;53653;52.188;8.602;2023-07-02T14:25:34;13.80;;;3.87;;
66739;SDS011;53653;52.188;8.602;2023-07-02T14:28:00;11.10;;;3.73;;
66739;SDS011;53653;52.188;8.602;2023-07-02T14:30:25;11.93;;;3.87;;
66739;SDS011;53653;52.188;8.602;2023-07-02T14:32:51;12.05;;;3.72;;
66739;SDS011;53653;52.188;8.602;2023-07-02T14:35:16;9.87;;;4.20;;
66739;SDS011;53653;52.188;8.602;2023-07-02T14:37:42;11.30;;;3.73;;
66739;SDS011;53653;52.188;8.602;2023-07-02T14:40:07;11.70;;;3.57;;
66739;SDS011;53653;52.188;8.602;2023-07-02T14:42:33;13.02;;;3.90;;